CheckWX is a tool to help pilots better visualize weather data.  It is not intended as a substitute for an official pre-flight weather briefing.

14:54:02 UTC

PAOM TAF
Nome Airport
Nome, Alaska, USA
PAOM 231120Z 2312/2412 07012KT P6SM VCSH BKN060 OVC090 FM232000 10010KT P6SM SCT035 BKN050 OVC100

Mar-23@
12:00 UTC

Mar-23 @ 12:00 UTC

Mar-23@
20:00 UTC

Mar-23 @ 20:00 UTC

PAOM 231120Z 2312/2412 07012KT P6SM VCSH BKN060 OVC090
Wind
  • 070° at 12 KTS
Cloud Levels
  • Broken at 6,000' AGL
  • Overcast at 9,000' AGL

Mar-23@
20:00 UTC

Mar-23 @ 20:00 UTC

Mar-24@
12:00 UTC

Mar-24 @ 12:00 UTC

FM232000 10010KT P6SM SCT035 BKN050 OVC100

From

From Standard forecast or significant change

Wind
  • 100° at 10 KTS
Cloud Levels
  • Scattered at 3,500' AGL
  • Broken at 5,000' AGL
  • Overcast at 10,000' AGL